createdAt,value
2023-05-24T00:00:47.962Z,18.10
2023-05-24T00:03:16.351Z,18.00
2023-05-24T00:05:43.544Z,18.00
2023-05-24T00:08:10.598Z,18.00
2023-05-24T00:10:37.412Z,17.90
2023-05-24T00:13:04.252Z,17.90
2023-05-24T00:15:31.293Z,17.90
2023-05-24T00:17:58.169Z,17.90
2023-05-24T00:20:25.337Z,17.90
2023-05-24T00:22:52.476Z,18.70
2023-05-24T00:25:19.283Z,17.80
2023-05-24T00:27:46.152Z,17.80
2023-05-24T00:30:13.130Z,18.00
2023-05-24T00:35:08.303Z,17.70
2023-05-24T00:37:35.122Z,17.60
2023-05-24T00:40:01.912Z,17.60
2023-05-24T00:42:28.924Z,17.50
2023-05-24T00:44:56.145Z,17.50
2023-05-24T00:47:23.092Z,20.70
2023-05-24T00:49:50.323Z,17.50
2023-05-24T00:52:17.950Z,17.40
2023-05-24T00:54:45.000Z,17.40
2023-05-24T00:57:14.042Z,17.30
2023-05-24T00:59:41.180Z,17.30
2023-05-24T01:02:07.989Z,17.20
2023-05-24T01:04:35.735Z,17.30
2023-05-24T01:07:05.687Z,17.20
2023-05-24T01:09:50.463Z,17.20
2023-05-24T01:12:36.872Z,17.20
2023-05-24T01:15:15.758Z,17.10
2023-05-24T01:17:54.383Z,17.10
2023-05-24T01:20:23.587Z,17.00
2023-05-24T01:22:56.699Z,17.10
2023-05-24T01:25:38.983Z,17.10
2023-05-24T01:28:08.530Z,17.00
2023-05-24T01:30:36.459Z,16.90
2023-05-24T01:33:03.669Z,16.90
2023-05-24T01:35:30.581Z,16.90
2023-05-24T01:37:57.370Z,16.90
2023-05-24T01:40:24.304Z,16.90
2023-05-24T01:43:26.399Z,16.80
2023-05-24T01:46:06.670Z,16.80
2023-05-24T01:49:05.108Z,16.80
2023-05-24T01:51:51.363Z,16.80
2023-05-24T01:54:22.695Z,16.70
2023-05-24T01:56:52.482Z,16.70
2023-05-24T01:59:22.555Z,16.80
2023-05-24T02:01:50.185Z,16.70
2023-05-24T02:04:17.840Z,16.70
2023-05-24T02:06:45.069Z,16.60
2023-05-24T02:09:12.234Z,16.60
2023-05-24T02:11:39.076Z,16.60
2023-05-24T02:14:06.053Z,16.60
2023-05-24T02:16:33.345Z,16.60
2023-05-24T02:19:00.179Z,16.50
2023-05-24T02:21:28.848Z,16.50
2023-05-24T02:23:55.649Z,16.50
2023-05-24T02:26:22.511Z,16.50
2023-05-24T02:28:49.382Z,16.50
2023-05-24T02:31:16.239Z,16.50
2023-05-24T02:33:43.531Z,16.70
2023-05-24T02:36:10.926Z,16.50
2023-05-24T02:38:37.723Z,16.50
2023-05-24T02:41:04.556Z,16.40
2023-05-24T02:43:31.637Z,16.50
2023-05-24T02:45:58.588Z,16.40
2023-05-24T02:48:25.457Z,16.50
2023-05-24T02:50:52.336Z,16.50
2023-05-24T02:53:19.166Z,16.40
2023-05-24T02:55:46.714Z,16.40
2023-05-24T02:58:13.657Z,16.50
2023-05-24T03:00:40.670Z,16.50
2023-05-24T03:03:07.814Z,16.50
2023-05-24T03:05:34.813Z,16.40
2023-05-24T03:08:01.667Z,16.50
2023-05-24T03:10:28.531Z,16.50
2023-05-24T03:12:55.414Z,16.60
2023-05-24T03:15:22.984Z,16.40
2023-05-24T03:17:50.096Z,16.50
2023-05-24T03:20:17.703Z,16.50
2023-05-24T03:22:45.533Z,16.40
2023-05-24T03:25:12.645Z,16.50
2023-05-24T03:27:39.439Z,16.40
2023-05-24T03:30:07.043Z,16.50
2023-05-24T03:32:40.714Z,16.40
2023-05-24T03:35:08.048Z,16.40
2023-05-24T03:37:34.959Z,16.40
2023-05-24T03:40:01.842Z,16.40
2023-05-24T03:42:42.277Z,17.80
2023-05-24T03:45:10.669Z,16.40
2023-05-24T03:47:38.264Z,16.40
2023-05-24T03:50:05.751Z,18.20
2023-05-24T03:52:32.552Z,16.40
2023-05-24T03:54:59.378Z,16.40
2023-05-24T03:57:26.613Z,16.40
2023-05-24T03:59:53.439Z,16.50
2023-05-24T04:02:20.449Z,16.60
2023-05-24T04:04:47.387Z,16.40
2023-05-24T04:07:15.458Z,16.30
2023-05-24T04:09:43.207Z,16.30
2023-05-24T04:12:10.063Z,16.30
2023-05-24T04:14:37.007Z,16.30
2023-05-24T04:17:05.779Z,16.30
2023-05-24T04:19:32.741Z,16.30
2023-05-24T04:21:59.928Z,16.30
2023-05-24T04:24:26.823Z,16.30
2023-05-24T04:26:54.123Z,16.30
2023-05-24T04:29:21.387Z,16.30
2023-05-24T04:31:48.521Z,16.30
2023-05-24T04:34:15.435Z,16.30
2023-05-24T04:36:42.246Z,16.30
2023-05-24T04:39:11.512Z,16.30
2023-05-24T04:41:38.720Z,16.30
2023-05-24T04:44:05.594Z,16.30
2023-05-24T04:46:36.193Z,16.30
2023-05-24T04:49:03.258Z,16.30
2023-05-24T04:51:30.192Z,16.30
2023-05-24T04:53:56.971Z,16.40
2023-05-24T04:58:51.473Z,16.20
2023-05-24T05:01:19.090Z,16.20
2023-05-24T05:03:46.238Z,17.80
2023-05-24T05:06:13.730Z,11.60
2023-05-24T05:08:40.646Z,16.10
2023-05-24T05:11:07.705Z,16.20
2023-05-24T05:13:34.491Z,16.10
2023-05-24T05:16:01.944Z,16.10
2023-05-24T05:18:28.811Z,16.10
2023-05-24T05:20:55.950Z,16.10
2023-05-24T05:23:22.808Z,16.00
2023-05-24T05:25:49.660Z,16.00
2023-05-24T05:28:16.844Z,15.90
2023-05-24T05:30:43.979Z,16.00
2023-05-24T05:33:11.083Z,16.00
2023-05-24T05:35:38.221Z,16.00
2023-05-24T05:38:05.043Z,16.20
2023-05-24T05:40:31.975Z,16.00
2023-05-24T05:42:58.834Z,15.90
2023-05-24T05:45:25.874Z,16.00
2023-05-24T05:47:52.814Z,15.90
2023-05-24T05:50:19.813Z,15.90
2023-05-24T05:52:46.610Z,15.90
2023-05-24T05:55:13.493Z,16.10
2023-05-24T05:57:40.981Z,15.90
2023-05-24T06:00:08.843Z,16.10
2023-05-24T06:02:41.388Z,15.90
2023-05-24T06:05:08.815Z,15.90
2023-05-24T06:07:37.476Z,15.90
2023-05-24T06:10:04.859Z,16.20
2023-05-24T06:12:31.917Z,15.90
2023-05-24T06:14:59.599Z,15.90
2023-05-24T06:17:27.940Z,15.80
2023-05-24T06:19:55.875Z,16.30
2023-05-24T06:22:23.001Z,12.00
2023-05-24T06:24:49.833Z,16.20
2023-05-24T06:27:16.693Z,15.90
2023-05-24T06:29:43.626Z,15.90
2023-05-24T06:32:10.539Z,15.90
2023-05-24T06:34:37.357Z,15.80
2023-05-24T06:37:04.402Z,15.80
2023-05-24T06:39:31.302Z,15.80
2023-05-24T06:41:58.176Z,15.80
2023-05-24T06:44:31.851Z,15.80
2023-05-24T06:46:58.742Z,15.70
2023-05-24T06:49:25.902Z,15.80
2023-05-24T06:51:52.969Z,15.80
2023-05-24T06:54:19.864Z,15.80
2023-05-24T06:56:46.815Z,15.80
2023-05-24T06:59:13.744Z,15.70
2023-05-24T07:01:42.998Z,15.80
2023-05-24T07:04:10.213Z,15.80
2023-05-24T07:06:39.841Z,15.80
2023-05-24T07:09:08.355Z,16.00
2023-05-24T07:11:35.239Z,15.80
2023-05-24T07:14:02.180Z,15.80
2023-05-24T07:16:29.031Z,15.80
2023-05-24T07:18:56.389Z,15.90
2023-05-24T07:21:23.236Z,15.80
2023-05-24T07:23:51.855Z,15.90
2023-05-24T07:26:18.666Z,16.00
2023-05-24T07:28:45.978Z,15.90
2023-05-24T07:31:13.368Z,15.90
2023-05-24T07:33:40.545Z,15.90
2023-05-24T07:36:08.645Z,15.90
2023-05-24T07:38:36.241Z,15.90
2023-05-24T07:41:04.800Z,15.90
2023-05-24T07:43:31.738Z,15.90
2023-05-24T07:45:58.585Z,16.00
2023-05-24T07:48:25.927Z,16.00
2023-05-24T07:50:52.902Z,16.00
2023-05-24T07:53:20.001Z,16.00
2023-05-24T07:55:47.009Z,16.10
2023-05-24T07:58:13.870Z,16.10
2023-05-24T08:00:41.460Z,16.10
2023-05-24T08:03:08.945Z,16.10
2023-05-24T08:05:35.893Z,16.20
2023-05-24T08:08:02.897Z,16.20
2023-05-24T08:10:29.673Z,16.30
2023-05-24T08:12:56.791Z,16.30
2023-05-24T08:15:23.687Z,16.20
2023-05-24T08:17:50.707Z,16.30
2023-05-24T08:20:17.867Z,16.30
2023-05-24T08:22:44.858Z,16.30
2023-05-24T08:25:11.924Z,16.30
2023-05-24T08:27:38.760Z,16.30
2023-05-24T08:30:07.071Z,16.30
2023-05-24T08:32:34.262Z,16.30
2023-05-24T08:35:14.827Z,16.30
2023-05-24T08:37:46.443Z,16.40
2023-05-24T08:40:13.679Z,14.20
2023-05-24T08:42:41.720Z,16.40
2023-05-24T08:45:13.925Z,16.50
2023-05-24T08:47:41.654Z,16.50
2023-05-24T08:50:09.426Z,16.50
2023-05-24T08:52:37.229Z,16.60
2023-05-24T08:55:05.638Z,16.60
2023-05-24T08:57:35.156Z,16.70
2023-05-24T09:00:02.275Z,16.70
2023-05-24T09:02:31.242Z,16.90
2023-05-24T09:04:59.612Z,16.90
2023-05-24T09:07:26.960Z,17.00
2023-05-24T09:10:06.854Z,17.40
2023-05-24T09:12:38.521Z,17.10
2023-05-24T09:15:08.205Z,17.20
2023-05-24T09:17:37.050Z,17.30
2023-05-24T09:20:07.196Z,17.40
2023-05-24T09:22:37.530Z,17.40
2023-05-24T09:25:08.201Z,17.70
2023-05-24T09:27:36.144Z,17.60
2023-05-24T09:30:05.477Z,17.60
2023-05-24T09:32:33.146Z,17.70
2023-05-24T09:35:00.209Z,17.70
2023-05-24T09:37:32.097Z,17.80
2023-05-24T09:39:59.916Z,17.80
2023-05-24T09:42:31.481Z,17.90
2023-05-24T09:45:02.020Z,17.90
2023-05-24T09:47:30.804Z,17.90
2023-05-24T09:49:58.102Z,18.00
2023-05-24T09:52:25.006Z,18.10
2023-05-24T09:54:52.338Z,18.00
2023-05-24T09:57:22.768Z,18.10
2023-05-24T09:59:52.993Z,18.20
2023-05-24T10:02:22.988Z,18.20
2023-05-24T10:04:57.585Z,18.10
2023-05-24T10:07:24.908Z,18.10
2023-05-24T10:09:52.415Z,18.10
2023-05-24T10:12:23.105Z,18.10
2023-05-24T10:14:52.947Z,18.10
2023-05-24T10:17:21.185Z,18.10
2023-05-24T10:19:48.536Z,18.20
2023-05-24T10:22:17.266Z,18.20
2023-05-24T10:24:50.615Z,18.20
2023-05-24T10:27:22.921Z,18.30
2023-05-24T10:30:15.189Z,18.20
2023-05-24T10:32:44.658Z,18.30
2023-05-24T10:35:14.877Z,18.30
2023-05-24T10:37:43.343Z,18.40
2023-05-24T10:40:21.157Z,18.30
2023-05-24T10:42:48.708Z,18.30
2023-05-24T10:45:27.907Z,18.50
2023-05-24T10:47:56.729Z,18.40
2023-05-24T10:50:24.112Z,18.40
2023-05-24T10:52:51.085Z,18.40
2023-05-24T10:55:19.952Z,16.70
2023-05-24T10:57:47.466Z,18.50
2023-05-24T11:00:30.699Z,18.50
2023-05-24T11:03:09.766Z,18.50
2023-05-24T11:05:53.060Z,18.60
2023-05-24T11:08:35.297Z,18.60
2023-05-24T11:13:41.065Z,18.70
2023-05-24T11:16:08.232Z,18.70
2023-05-24T11:18:38.627Z,18.70
2023-05-24T11:21:06.663Z,18.80
2023-05-24T11:23:36.001Z,18.80
2023-05-24T11:26:05.204Z,18.80
2023-05-24T11:28:32.710Z,18.90
2023-05-24T11:31:08.594Z,18.90
2023-05-24T11:33:35.517Z,19.00
2023-05-24T11:36:02.809Z,18.90
2023-05-24T11:38:29.638Z,18.80
2023-05-24T11:40:58.588Z,18.90
2023-05-24T11:43:25.487Z,19.10
2023-05-24T11:45:52.797Z,18.70
2023-05-24T11:48:20.506Z,19.10
2023-05-24T11:50:50.236Z,19.20
2023-05-24T11:53:20.439Z,19.30
2023-05-24T11:55:48.779Z,19.20
2023-05-24T11:58:29.779Z,19.30
2023-05-24T12:00:56.617Z,19.30
2023-05-24T12:03:23.707Z,19.40
2023-05-24T12:05:51.377Z,19.40
2023-05-24T12:08:18.330Z,19.40
2023-05-24T12:10:45.593Z,19.50
2023-05-24T12:13:23.806Z,19.50
2023-05-24T12:16:00.337Z,19.50
2023-05-24T12:18:27.584Z,19.60
2023-05-24T12:20:54.804Z,19.60
2023-05-24T12:23:24.853Z,19.70
2023-05-24T12:25:51.683Z,19.70
2023-05-24T12:28:24.787Z,16.80
2023-05-24T12:30:51.856Z,20.00
2023-05-24T12:33:20.081Z,20.00
2023-05-24T12:35:48.495Z,20.20
2023-05-24T12:38:19.452Z,20.30
2023-05-24T12:40:57.088Z,20.40
2023-05-24T12:43:35.270Z,20.50
2023-05-24T12:46:02.211Z,20.70
2023-05-24T12:48:29.256Z,20.90
2023-05-24T12:50:56.091Z,21.10
2023-05-24T12:53:24.565Z,21.10
2023-05-24T12:55:55.889Z,21.30
2023-05-24T12:58:22.797Z,21.50
2023-05-24T13:00:51.482Z,21.60
2023-05-24T13:03:18.652Z,21.70
2023-05-24T13:05:46.120Z,21.80
2023-05-24T13:08:13.597Z,22.00
2023-05-24T13:10:40.877Z,22.10
2023-05-24T13:13:07.913Z,22.20
2023-05-24T13:15:34.955Z,22.40
2023-05-24T13:18:01.808Z,22.50
2023-05-24T13:20:29.203Z,22.70
2023-05-24T13:22:56.084Z,22.90
2023-05-24T13:25:22.952Z,23.10
2023-05-24T13:27:49.969Z,23.40
2023-05-24T13:30:17.436Z,23.70
2023-05-24T13:32:44.571Z,23.90
2023-05-24T13:35:11.497Z,24.20
2023-05-24T13:37:38.882Z,24.50
2023-05-24T13:40:06.572Z,24.80
2023-05-24T13:42:33.431Z,25.00
2023-05-24T13:45:00.377Z,25.30
2023-05-24T13:47:35.859Z,25.40
2023-05-24T13:50:07.384Z,25.50
2023-05-24T13:52:34.586Z,25.60
2023-05-24T13:55:04.700Z,25.70
2023-05-24T13:57:49.538Z,25.80
2023-05-24T14:00:18.157Z,25.80
2023-05-24T14:02:45.062Z,26.00
2023-05-24T14:05:24.779Z,26.00
2023-05-24T14:07:53.402Z,26.00
2023-05-24T14:10:21.577Z,26.20
2023-05-24T14:12:59.430Z,26.30
2023-05-24T14:15:31.109Z,26.40
2023-05-24T14:18:00.800Z,26.50
2023-05-24T14:20:28.120Z,26.60
2023-05-24T14:22:56.459Z,26.70
2023-05-24T14:25:25.204Z,26.70
2023-05-24T14:27:52.023Z,26.80
2023-05-24T14:30:18.893Z,26.90
2023-05-24T14:32:45.715Z,27.00
2023-05-24T14:35:12.616Z,27.10
2023-05-24T14:37:39.443Z,27.20
2023-05-24T14:40:07.021Z,27.40
2023-05-24T14:42:33.976Z,27.50
2023-05-24T14:45:01.052Z,27.60
2023-05-24T14:47:27.925Z,27.70
2023-05-24T14:49:54.708Z,27.90
2023-05-24T14:52:21.718Z,28.00
2023-05-24T14:54:48.491Z,28.10
2023-05-24T14:57:15.797Z,28.20
2023-05-24T14:59:42.648Z,28.20
2023-05-24T15:02:09.476Z,28.20
2023-05-24T15:04:36.305Z,28.30
2023-05-24T15:07:03.234Z,28.30
2023-05-24T15:09:30.016Z,28.30
2023-05-24T15:11:56.841Z,28.40
2023-05-24T15:14:23.881Z,28.30
2023-05-24T15:16:50.901Z,28.40
2023-05-24T15:19:17.751Z,28.40
2023-05-24T15:21:44.850Z,28.40
2023-05-24T15:24:13.180Z,28.40
2023-05-24T15:26:40.020Z,28.30
2023-05-24T15:29:06.834Z,28.30
2023-05-24T15:31:33.922Z,28.20
2023-05-24T15:34:00.802Z,28.40
2023-05-24T15:36:27.638Z,28.40
2023-05-24T15:38:54.605Z,28.50
2023-05-24T15:41:21.437Z,28.70
2023-05-24T15:43:51.688Z,28.80
2023-05-24T15:46:21.765Z,28.90
2023-05-24T15:48:48.796Z,29.00
2023-05-24T15:53:45.591Z,29.00
2023-05-24T15:56:12.454Z,29.00
2023-05-24T15:58:39.432Z,29.00
2023-05-24T16:01:06.442Z,28.90
2023-05-24T16:03:33.493Z,28.80
2023-05-24T16:06:00.355Z,28.80
2023-05-24T16:08:28.531Z,28.70
2023-05-24T16:10:56.362Z,28.70
2023-05-24T16:13:23.283Z,28.70
2023-05-24T16:15:51.705Z,28.80
2023-05-24T16:18:22.577Z,28.90
2023-05-24T16:20:51.179Z,29.00
2023-05-24T16:23:19.421Z,29.10
2023-05-24T16:25:46.346Z,29.20
2023-05-24T16:28:13.146Z,29.40
2023-05-24T16:30:40.172Z,29.50
2023-05-24T16:33:07.135Z,29.60
2023-05-24T16:35:34.650Z,29.70
2023-05-24T16:38:01.577Z,29.80
2023-05-24T16:40:28.702Z,29.80
2023-05-24T16:42:55.681Z,29.80
2023-05-24T16:45:22.698Z,29.80
2023-05-24T16:47:49.618Z,29.80
2023-05-24T16:50:16.754Z,29.80
2023-05-24T16:52:45.173Z,29.70
2023-05-24T16:55:13.034Z,29.80
2023-05-24T16:57:39.872Z,29.80
2023-05-24T17:00:07.540Z,29.80
2023-05-24T17:02:35.251Z,29.90
2023-05-24T17:05:02.143Z,30.00
2023-05-24T17:07:29.089Z,30.00
2023-05-24T17:09:55.890Z,30.00
2023-05-24T17:12:22.775Z,30.00
2023-05-24T17:14:49.719Z,30.00
2023-05-24T17:17:16.601Z,29.90
2023-05-24T17:19:43.431Z,29.80
2023-05-24T17:22:11.329Z,29.80
2023-05-24T17:24:38.310Z,29.70
2023-05-24T17:27:05.387Z,29.50
2023-05-24T17:29:32.783Z,29.40
2023-05-24T17:31:59.644Z,31.00
2023-05-24T17:34:26.766Z,29.10
2023-05-24T17:36:53.598Z,28.90
2023-05-24T17:39:21.372Z,28.70
2023-05-24T17:41:48.165Z,28.50
2023-05-24T17:44:15.051Z,32.40
2023-05-24T17:46:41.948Z,28.10
2023-05-24T17:49:08.856Z,27.90
2023-05-24T17:51:38.794Z,27.70
2023-05-24T17:54:06.109Z,27.60
2023-05-24T17:56:32.952Z,27.40
2023-05-24T17:58:59.830Z,27.10
2023-05-24T18:01:28.829Z,27.00
2023-05-24T18:03:55.871Z,26.80
2023-05-24T18:06:22.775Z,24.40
2023-05-24T18:08:49.789Z,26.40
2023-05-24T18:11:16.788Z,26.30
2023-05-24T18:13:43.931Z,26.10
2023-05-24T18:16:12.109Z,25.90
2023-05-24T18:18:39.738Z,25.80
2023-05-24T18:21:09.477Z,25.60
2023-05-24T18:23:39.882Z,25.50
2023-05-24T18:26:11.016Z,25.40
2023-05-24T18:28:39.009Z,25.20
2023-05-24T18:31:14.740Z,25.00
2023-05-24T18:33:42.034Z,25.00
2023-05-24T18:36:09.101Z,24.80
2023-05-24T18:38:36.894Z,24.70
2023-05-24T18:41:06.278Z,24.60
2023-05-24T18:43:33.474Z,24.50
2023-05-24T18:46:00.981Z,26.50
2023-05-24T18:48:27.923Z,24.20
2023-05-24T18:50:55.192Z,24.20
2023-05-24T18:53:22.040Z,24.20
2023-05-24T18:55:48.886Z,24.10
2023-05-24T18:58:15.800Z,24.00
2023-05-24T19:00:42.915Z,23.90
2023-05-24T19:03:12.081Z,23.80
2023-05-24T19:05:42.580Z,23.70
2023-05-24T19:08:10.640Z,19.20
2023-05-24T19:10:37.578Z,23.60
2023-05-24T19:13:05.709Z,23.50
2023-05-24T19:15:34.413Z,23.40
2023-05-24T19:18:01.747Z,19.20
2023-05-24T19:20:28.813Z,23.30
2023-05-24T19:22:56.332Z,23.10
2023-05-24T19:25:23.377Z,23.10
2023-05-24T19:27:59.365Z,23.00
2023-05-24T19:30:27.207Z,22.90
2023-05-24T19:32:54.418Z,22.90
2023-05-24T19:35:21.354Z,22.80
2023-05-24T19:37:48.221Z,22.70
2023-05-24T19:40:15.102Z,22.60
2023-05-24T19:42:42.109Z,22.50
2023-05-24T19:45:09.614Z,22.50
2023-05-24T19:47:36.668Z,22.40
2023-05-24T19:50:03.868Z,22.30
2023-05-24T19:52:30.719Z,22.20
2023-05-24T19:54:57.652Z,22.20
2023-05-24T19:57:24.544Z,22.00
2023-05-24T19:59:51.516Z,22.00
2023-05-24T20:02:18.306Z,21.90
2023-05-24T20:04:45.142Z,21.80
2023-05-24T20:07:11.965Z,21.80
2023-05-24T20:09:38.915Z,21.70
2023-05-24T20:12:06.231Z,21.70
2023-05-24T20:14:33.102Z,21.60
2023-05-24T20:17:01.173Z,21.50
2023-05-24T20:19:28.352Z,21.40
2023-05-24T20:21:55.329Z,21.40
2023-05-24T20:24:22.127Z,21.40
2023-05-24T20:26:48.936Z,21.40
2023-05-24T20:29:15.804Z,21.20
2023-05-24T20:31:42.778Z,21.20
2023-05-24T20:34:09.693Z,21.10
2023-05-24T20:36:36.912Z,21.10
2023-05-24T20:39:04.161Z,21.00
2023-05-24T20:41:31.199Z,20.90
2023-05-24T20:43:58.073Z,20.90
2023-05-24T20:46:25.112Z,20.80
2023-05-24T20:48:53.626Z,20.80
2023-05-24T20:51:20.809Z,20.80
2023-05-24T20:53:49.062Z,20.70
2023-05-24T20:56:16.158Z,20.60
2023-05-24T20:58:43.894Z,20.60
2023-05-24T21:01:10.913Z,20.50
2023-05-24T21:03:37.827Z,20.50
2023-05-24T21:06:04.762Z,20.50
2023-05-24T21:08:31.623Z,20.40
2023-05-24T21:10:58.707Z,20.40
2023-05-24T21:13:25.965Z,20.30
2023-05-24T21:15:52.850Z,20.30
2023-05-24T21:18:19.670Z,20.30
2023-05-24T21:20:46.595Z,20.30
2023-05-24T21:23:13.461Z,20.20
2023-05-24T21:25:40.338Z,20.20
2023-05-24T21:28:07.230Z,20.20
2023-05-24T21:30:34.052Z,20.20
2023-05-24T21:33:00.939Z,20.10
2023-05-24T21:35:28.058Z,20.20
2023-05-24T21:37:55.001Z,20.10
2023-05-24T21:40:21.939Z,20.10
2023-05-24T21:42:48.746Z,20.00
2023-05-24T21:45:15.729Z,20.00
2023-05-24T21:47:43.070Z,19.90
2023-05-24T21:50:10.426Z,19.90
2023-05-24T21:52:37.403Z,19.90
2023-05-24T21:55:04.647Z,19.90
2023-05-24T21:57:31.548Z,19.90
2023-05-24T21:59:58.382Z,19.90
2023-05-24T22:02:25.233Z,19.80
2023-05-24T22:04:52.035Z,19.80
2023-05-24T22:07:18.857Z,19.80
2023-05-24T22:09:45.809Z,19.80
2023-05-24T22:12:12.697Z,19.70
2023-05-24T22:14:39.526Z,19.70
2023-05-24T22:17:06.638Z,19.70
2023-05-24T22:22:03.428Z,19.70
2023-05-24T22:24:30.844Z,19.60
2023-05-24T22:26:57.669Z,19.50
2023-05-24T22:29:24.486Z,19.50
2023-05-24T22:31:51.359Z,19.50
2023-05-24T22:34:28.829Z,19.40
2023-05-24T22:36:57.517Z,19.40
2023-05-24T22:39:25.043Z,19.30
2023-05-24T22:41:52.676Z,19.30
2023-05-24T22:44:19.666Z,19.30
2023-05-24T22:46:57.993Z,19.30
2023-05-24T22:49:24.815Z,19.20
2023-05-24T22:51:53.420Z,19.10
2023-05-24T22:54:20.310Z,19.10
2023-05-24T22:56:47.164Z,19.10
2023-05-24T22:59:14.122Z,19.00
2023-05-24T23:01:41.050Z,18.90
2023-05-24T23:04:20.358Z,18.90
2023-05-24T23:06:49.185Z,18.90
2023-05-24T23:09:17.638Z,18.90
2023-05-24T23:11:44.520Z,18.80
2023-05-24T23:14:11.711Z,18.90
2023-05-24T23:16:45.243Z,18.70
2023-05-24T23:19:18.314Z,18.70
2023-05-24T23:21:45.685Z,18.70
2023-05-24T23:24:15.892Z,18.60
2023-05-24T23:26:43.248Z,18.60
2023-05-24T23:29:10.439Z,18.60
2023-05-24T23:31:37.544Z,18.60
2023-05-24T23:34:05.406Z,18.60
2023-05-24T23:36:32.279Z,18.50
2023-05-24T23:38:59.121Z,18.50
2023-05-24T23:41:26.493Z,18.50
2023-05-24T23:43:53.445Z,18.40
2023-05-24T23:46:20.459Z,18.50
2023-05-24T23:48:47.452Z,18.40
2023-05-24T23:51:14.311Z,18.40
2023-05-24T23:53:41.129Z,18.40
2023-05-24T23:56:07.996Z,18.30
2023-05-24T23:58:35.941Z,18.30
